Wellsville, Colorado
Current Conditions -  °F | °C
As of 4:15 PM on Friday 19 Dec 2014 (Local Time) from KANK Reporting Station
Clear Clear  
Wind Chill: 24°   Ceiling: Unl
Heat Index: 34°   Visibility: 10mi
Dew Point: 13°   Wind: 16mph
Humidity: 42%   Direction: 210°SSW
Pressure: 30.15"   Gusts: 29mph
Location:  38.5561°N, 106.066°W
Report Text: KANK 192315Z AUTO 21014G25KT 10SM CLR 01/M10 A3015 RMK AO1 T00121105
Loading
Personal Weather Stations






























Interactive Weather Map New forecast layout! Learn more

10-Day Weather Forecast

Advertisements
Track Severe Weather on mobile